»·PEaware :: ACA314 KPHX-KDEN

ACA314 :: KPHX-KDEN

FLIGHT INFORMATION

Flight Status: Arrived
Operator:
Air Canada
More flights by this operator :: More flights under this callsign
Pilot: Tim B. (15084)
Aircraft: AIRBUS A320
(A320)
More flights by this aircraft type
Origin: KPHX Phoenix Sky Harbor Intl
United States
Destination: KDEN Denver Intl
United States
More flights between these airports :: More routes between these airports
Route: +MRBIL1 YOOPR OURAY LDORA2
File this flight plan on PilotEdge
Remarks:
Altitude:
(Current/Filed)
35,000ft
Speed:
(Current/Filed)
500kts
Departed: 08-May-19 01:42 PM
Arrived: 08-May-19 03:07 PM
Distance/Time
Traveled:
522nm/1:25
Distance/Time
To Go:
Arrived

Flight Plot

Page will automatically refresh every two minutes.

Flight plan parsing failed; only flown route is shown


Map Options




Map Legend


Flown Route
Filed Route
Departure Airport
Arrival Airport
Navaid (VOR, NDB)
Fix

Horizontal Profiles

Position Reports

Time Latitude Longitude Heading Altitude Ground
Speed
08-May-19 13:03 33.437995 -112.008199 270 1128ft 0kts
08-May-19 13:04 33.437995 -112.008199 270 1128ft 0kts
08-May-19 13:05 33.437995 -112.008199 270 1128ft 0kts
08-May-19 13:06 33.437995 -112.008199 270 1128ft 0kts
08-May-19 13:07 33.437995 -112.008199 270 1128ft 0kts
08-May-19 13:08 33.437995 -112.008199 270 1128ft 0kts
08-May-19 13:09 33.437995 -112.008199 270 1128ft 0kts
08-May-19 13:10 33.437995 -112.008199 270 1128ft 0kts
08-May-19 13:11 33.437995 -112.008199 270 1128ft 0kts
08-May-19 13:12 33.437995 -112.008199 270 1128ft 0kts
08-May-19 13:13 33.437995 -112.008199 270 1128ft 0kts
08-May-19 13:14 33.437995 -112.008199 270 1128ft 0kts
08-May-19 13:15 33.437995 -112.008199 270 1128ft 0kts
08-May-19 13:16 33.437995 -112.008199 270 1128ft 0kts
08-May-19 13:17 33.437995 -112.008199 270 1128ft 0kts
08-May-19 13:18 33.437995 -112.008199 270 1128ft 0kts
08-May-19 13:19 33.437995 -112.008199 270 1128ft 0kts
08-May-19 13:20 33.437995 -112.008199 270 1128ft 0kts
08-May-19 13:21 33.437995 -112.008199 270 1128ft 0kts
08-May-19 13:23 33.437995 -112.008199 270 1128ft 0kts
08-May-19 13:24 33.437995 -112.008199 270 1128ft 0kts
08-May-19 13:25 33.437995 -112.008199 270 1128ft 0kts
08-May-19 13:26 33.437995 -112.008199 270 1128ft 0kts
08-May-19 13:27 33.437995 -112.008199 270 1128ft 0kts
08-May-19 13:28 33.437995 -112.008199 270 1128ft 0kts
08-May-19 13:29 33.437995 -112.008199 270 1128ft 0kts
08-May-19 13:30 33.437995 -112.008199 270 1128ft 0kts
08-May-19 13:31 33.437994 -112.007996 269 1128ft 2kts
08-May-19 13:32 33.437998 -112.007414 286 1129ft 0kts
08-May-19 13:33 33.437865 -112.007346 1 1129ft 0kts
08-May-19 13:34 33.437871 -112.007346 1 1129ft 0kts
08-May-19 13:35 33.438819 -112.007298 25 1131ft 3kts
08-May-19 13:36 33.439032 -112.001912 89 1131ft 20kts
08-May-19 13:37 33.439051 -111.992768 89 1136ft 17kts
08-May-19 13:38 33.439883 -111.992178 341 1138ft 0kts
08-May-19 13:39 33.439883 -111.992178 341 1138ft 0kts
08-May-19 13:40 33.439883 -111.992178 341 1138ft 0kts
08-May-19 13:41 33.440848 -111.992924 272 1138ft 7kts
08-May-19 13:42 33.441222 -112.031910 268 2683ft 169kts
08-May-19 13:43 33.440526 -112.096412 267 5509ft 240kts
08-May-19 13:43 33.446498 -112.169475 296 7819ft 285kts
08-May-19 13:45 33.529802 -112.196482 5 11776ft 299kts
08-May-19 13:46 33.610429 -112.172555 23 14803ft 315kts
08-May-19 13:46 33.663345 -112.112113 43 17199ft 324kts
08-May-19 13:48 33.737035 -112.018334 43 20145ft 339kts
08-May-19 13:48 33.786793 -111.943905 49 22053ft 349kts
08-May-19 13:50 33.856316 -111.833893 50 24462ft 363kts
08-May-19 13:51 33.917984 -111.736147 49 26330ft 374kts
08-May-19 13:51 33.970688 -111.652370 50 27761ft 382kts
08-May-19 13:53 34.063725 -111.554238 29 29515ft 394kts
08-May-19 13:53 34.140434 -111.495579 29 30708ft 401kts
08-May-19 13:54 34.235402 -111.421845 31 31645ft 419kts
08-May-19 13:55 34.335160 -111.344691 31 32096ft 443kts
08-May-19 13:56 34.441612 -111.262392 31 32464ft 463kts
08-May-19 13:57 34.550678 -111.177497 31 33035ft 470kts
08-May-19 13:58 34.661662 -111.095637 26 33847ft 468kts
08-May-19 13:59 34.775934 -111.020809 26 34582ft 466kts
08-May-19 14:00 34.888526 -110.946811 27 35008ft 465kts
08-May-19 14:01 35.001670 -110.872291 26 35010ft 465kts
08-May-19 14:02 35.113427 -110.798475 26 35011ft 465kts
08-May-19 14:03 35.227016 -110.723125 26 35011ft 465kts
08-May-19 14:04 35.340370 -110.647755 26 35011ft 465kts
08-May-19 14:05 35.453381 -110.572191 27 35012ft 465kts
08-May-19 14:06 35.562354 -110.499173 27 35011ft 465kts
08-May-19 14:07 35.671252 -110.414878 44 35012ft 466kts
08-May-19 14:08 35.755580 -110.296863 48 35010ft 465kts
08-May-19 14:09 35.840369 -110.176412 48 35010ft 465kts
08-May-19 14:10 35.924537 -110.056849 48 35010ft 465kts
08-May-19 14:11 36.009030 -109.936422 47 35010ft 465kts
08-May-19 14:12 36.093613 -109.815516 47 35011ft 465kts
08-May-19 14:13 36.176972 -109.695840 47 35011ft 465kts
08-May-19 14:14 36.261293 -109.574891 47 35011ft 465kts
08-May-19 14:15 36.345218 -109.453535 47 35011ft 465kts
08-May-19 14:16 36.428220 -109.333046 47 35011ft 465kts
08-May-19 14:17 36.512096 -109.210930 47 35011ft 465kts
08-May-19 14:18 36.595752 -109.088652 47 35011ft 465kts
08-May-19 14:19 36.678973 -108.966262 48 35011ft 465kts
08-May-19 14:20 36.762461 -108.843276 47 35011ft 465kts
08-May-19 14:21 36.845771 -108.720189 47 35011ft 465kts
08-May-19 14:22 36.928831 -108.596973 47 35011ft 465kts
08-May-19 14:23 37.011306 -108.474162 47 35012ft 465kts
08-May-19 14:24 37.094266 -108.350133 47 35011ft 465kts
08-May-19 14:25 37.173574 -108.231211 48 35011ft 465kts
08-May-19 14:26 37.255344 -108.107979 48 35011ft 465kts
08-May-19 14:27 37.335693 -107.986497 48 35011ft 465kts
08-May-19 14:28 37.417902 -107.861729 48 35011ft 465kts
08-May-19 14:29 37.499937 -107.736492 48 35011ft 465kts
08-May-19 14:30 37.582283 -107.611397 48 35011ft 465kts
08-May-19 14:31 37.664158 -107.485650 48 35011ft 465kts
08-May-19 14:32 37.745646 -107.359973 48 35011ft 465kts
08-May-19 14:33 37.826179 -107.235356 49 35010ft 465kts
08-May-19 14:34 37.906473 -107.111382 46 35008ft 465kts
08-May-19 14:35 37.987144 -106.986163 47 35010ft 466kts
08-May-19 14:36 38.068603 -106.858837 47 35009ft 466kts
08-May-19 14:37 38.146327 -106.736790 47 35010ft 466kts
08-May-19 14:38 38.227406 -106.608973 46 35014ft 466kts
08-May-19 14:39 38.318019 -106.493562 41 34980ft 464kts
08-May-19 14:40 38.408905 -106.380345 41 32402ft 448kts
08-May-19 14:41 38.493041 -106.275767 41 28752ft 425kts
08-May-19 14:42 38.576105 -106.172282 41 26181ft 411kts
08-May-19 14:43 38.655610 -106.072638 42 24190ft 398kts
08-May-19 14:44 38.732874 -105.975445 41 22175ft 386kts
08-May-19 14:45 38.788670 -105.905221 40 20818ft 382kts
08-May-19 14:46 38.863824 -105.810193 40 20491ft 379kts
08-May-19 14:47 38.938069 -105.715712 40 20404ft 371kts
08-May-19 14:48 39.008703 -105.625785 40 18805ft 353kts
08-May-19 14:49 39.077337 -105.538019 40 17416ft 350kts
08-May-19 14:50 39.144992 -105.451194 40 17378ft 347kts
08-May-19 14:51 39.213268 -105.363736 40 17344ft 346kts
08-May-19 14:52 39.280765 -105.275921 50 17315ft 349kts
08-May-19 14:53 39.302199 -105.155871 80 16053ft 343kts
08-May-19 14:54 39.312583 -105.035176 80 14209ft 336kts
08-May-19 14:55 39.329524 -104.927548 71 13304ft 334kts
08-May-19 14:56 39.353989 -104.817968 66 13013ft 290kts
08-May-19 14:57 39.379954 -104.728028 61 13010ft 258kts
08-May-19 14:58 39.429024 -104.668934 6 13019ft 246kts
08-May-19 14:59 39.496006 -104.665204 357 12740ft 238kts
08-May-19 15:00 39.562468 -104.663349 355 10723ft 241kts
08-May-19 15:01 39.627877 -104.663094 355 9228ft 226kts
08-May-19 15:02 39.687288 -104.662298 355 8158ft 208kts
08-May-19 15:03 39.737743 -104.661325 353 7211ft 157kts
08-May-19 15:04 39.782001 -104.661128 354 6246ft 157kts
08-May-19 15:05 39.825637 -104.660487 352 5476ft 156kts
08-May-19 15:06 39.843689 -104.660509 3 5401ft 34kts
08-May-19 15:07 39.852793 -104.662848 297 5417ft 20kts
08-May-19 15:08 39.852756 -104.670122 272 5404ft 7kts
08-May-19 15:09 39.852661 -104.671032 139 5402ft 10kts
08-May-19 15:10 39.853310 -104.670526 0 5405ft 0kts

Navigation Log

Ident Type
Flight plan parsing failed, navigation log unavailable